sensor_id;sensor_type;location;lat;lon;timestamp;temperature;humidity
54124;DHT22;55741;53.252;5.788;2022-07-03T00:01:56;16.90;99.90
54124;DHT22;55741;53.252;5.788;2022-07-03T00:04:22;16.80;99.90
54124;DHT22;55741;53.252;5.788;2022-07-03T00:06:49;16.80;99.90
54124;DHT22;55741;53.252;5.788;2022-07-03T00:09:15;16.70;99.90
54124;DHT22;55741;53.252;5.788;2022-07-03T00:11:42;16.70;99.90
54124;DHT22;55741;53.252;5.788;2022-07-03T00:14:13;16.60;99.90
54124;DHT22;55741;53.252;5.788;2022-07-03T00:16:39;16.50;99.90
54124;DHT22;55741;53.252;5.788;2022-07-03T00:19:05;16.50;99.90
54124;DHT22;55741;53.252;5.788;2022-07-03T00:21:43;16.40;99.90
54124;DHT22;55741;53.252;5.788;2022-07-03T00:24:26;16.40;99.90
54124;DHT22;55741;53.252;5.788;2022-07-03T00:26:58;16.30;99.90
54124;DHT22;55741;53.252;5.788;2022-07-03T00:29:29;16.30;99.90
54124;DHT22;55741;53.252;5.788;2022-07-03T00:31:58;16.30;99.90
54124;DHT22;55741;53.252;5.788;2022-07-03T00:34:29;16.10;99.90
54124;DHT22;55741;53.252;5.788;2022-07-03T00:36:57;16.00;99.90
54124;DHT22;55741;53.252;5.788;2022-07-03T00:39:23;15.80;99.90
54124;DHT22;55741;53.252;5.788;2022-07-03T00:42:00;15.70;99.90
54124;DHT22;55741;53.252;5.788;2022-07-03T00:44:28;15.70;99.90
54124;DHT22;55741;53.252;5.788;2022-07-03T00:46:55;15.60;99.90
54124;DHT22;55741;53.252;5.788;2022-07-03T00:49:23;15.60;99.90
54124;DHT22;55741;53.252;5.788;2022-07-03T00:51:52;15.60;99.90
54124;DHT22;55741;53.252;5.788;2022-07-03T00:54:21;15.50;99.90
54124;DHT22;55741;53.252;5.788;2022-07-03T00:56:51;15.50;99.90
54124;DHT22;55741;53.252;5.788;2022-07-03T00:59:18;15.50;99.90
54124;DHT22;55741;53.252;5.788;2022-07-03T01:01:45;15.40;99.90
54124;DHT22;55741;53.252;5.788;2022-07-03T01:07:06;15.40;99.90
54124;DHT22;55741;53.252;5.788;2022-07-03T01:12:27;15.40;99.90
54124;DHT22;55741;53.252;5.788;2022-07-03T01:15:05;15.30;99.90
54124;DHT22;55741;53.252;5.788;2022-07-03T01:17:41;15.30;99.90
54124;DHT22;55741;53.252;5.788;2022-07-03T01:20:11;15.30;99.90
54124;DHT22;55741;53.252;5.788;2022-07-03T01:22:43;15.40;99.90
54124;DHT22;55741;53.252;5.788;2022-07-03T01:25:26;15.30;99.90
54124;DHT22;55741;53.252;5.788;2022-07-03T01:28:08;15.30;99.90
54124;DHT22;55741;53.252;5.788;2022-07-03T01:30:54;15.30;99.90
54124;DHT22;55741;53.252;5.788;2022-07-03T01:33:25;15.30;99.90
54124;DHT22;55741;53.252;5.788;2022-07-03T01:38:18;15.20;99.90
54124;DHT22;55741;53.252;5.788;2022-07-03T01:40:49;15.20;99.90
54124;DHT22;55741;53.252;5.788;2022-07-03T01:43:19;15.20;99.90
54124;DHT22;55741;53.252;5.788;2022-07-03T01:45:47;15.20;99.90
54124;DHT22;55741;53.252;5.788;2022-07-03T01:48:14;15.10;99.90
54124;DHT22;55741;53.252;5.788;2022-07-03T01:50:41;15.10;99.90
54124;DHT22;55741;53.252;5.788;2022-07-03T01:53:10;15.10;99.90
54124;DHT22;55741;53.252;5.788;2022-07-03T01:55:41;15.10;99.90
54124;DHT22;55741;53.252;5.788;2022-07-03T01:58:08;15.10;99.90
54124;DHT22;55741;53.252;5.788;2022-07-03T02:00:59;15.10;99.90
54124;DHT22;55741;53.252;5.788;2022-07-03T02:03:29;15.10;99.90
54124;DHT22;55741;53.252;5.788;2022-07-03T02:06:06;15.00;99.90
54124;DHT22;55741;53.252;5.788;2022-07-03T02:08:58;15.00;99.90
54124;DHT22;55741;53.252;5.788;2022-07-03T02:11:27;15.10;99.90
54124;DHT22;55741;53.252;5.788;2022-07-03T02:14:12;15.10;99.90
54124;DHT22;55741;53.252;5.788;2022-07-03T02:19:48;15.00;99.90
54124;DHT22;55741;53.252;5.788;2022-07-03T02:22:33;15.00;99.90
54124;DHT22;55741;53.252;5.788;2022-07-03T02:25:05;15.00;99.90
54124;DHT22;55741;53.252;5.788;2022-07-03T02:27:43;15.00;99.90
54124;DHT22;55741;53.252;5.788;2022-07-03T02:30:10;15.00;99.90
54124;DHT22;55741;53.252;5.788;2022-07-03T02:32:44;15.10;99.90
54124;DHT22;55741;53.252;5.788;2022-07-03T02:38:09;15.00;99.90
54124;DHT22;55741;53.252;5.788;2022-07-03T02:43:31;15.00;99.90
54124;DHT22;55741;53.252;5.788;2022-07-03T02:49:20;14.90;99.90
54124;DHT22;55741;53.252;5.788;2022-07-03T02:51:54;15.00;99.90
54124;DHT22;55741;53.252;5.788;2022-07-03T02:54:25;15.00;99.90
54124;DHT22;55741;53.252;5.788;2022-07-03T02:57:06;15.00;99.90
54124;DHT22;55741;53.252;5.788;2022-07-03T03:00:01;15.00;99.90
54124;DHT22;55741;53.252;5.788;2022-07-03T03:02:33;15.00;99.90
54124;DHT22;55741;53.252;5.788;2022-07-03T03:05:13;15.10;99.90
54124;DHT22;55741;53.252;5.788;2022-07-03T03:10:29;15.20;99.90
54124;DHT22;55741;53.252;5.788;2022-07-03T03:13:04;15.20;99.90
54124;DHT22;55741;53.252;5.788;2022-07-03T03:15:32;15.20;99.90
54124;DHT22;55741;53.252;5.788;2022-07-03T03:18:07;15.30;99.90
54124;DHT22;55741;53.252;5.788;2022-07-03T03:20:36;15.30;99.90
54124;DHT22;55741;53.252;5.788;2022-07-03T03:23:44;15.30;99.90
54124;DHT22;55741;53.252;5.788;2022-07-03T03:26:18;15.40;99.90
54124;DHT22;55741;53.252;5.788;2022-07-03T03:28:44;15.40;99.90
54124;DHT22;55741;53.252;5.788;2022-07-03T03:31:10;15.40;99.90
54124;DHT22;55741;53.252;5.788;2022-07-03T03:33:43;15.40;99.90
54124;DHT22;55741;53.252;5.788;2022-07-03T03:36:11;15.50;99.90
54124;DHT22;55741;53.252;5.788;2022-07-03T03:38:39;15.50;99.90
54124;DHT22;55741;53.252;5.788;2022-07-03T03:41:06;15.50;99.90
54124;DHT22;55741;53.252;5.788;2022-07-03T03:43:32;15.60;99.90
54124;DHT22;55741;53.252;5.788;2022-07-03T03:45:59;15.60;99.90
54124;DHT22;55741;53.252;5.788;2022-07-03T03:48:30;15.60;99.90
54124;DHT22;55741;53.252;5.788;2022-07-03T03:50:57;15.70;99.90
54124;DHT22;55741;53.252;5.788;2022-07-03T03:53:24;15.70;99.90
54124;DHT22;55741;53.252;5.788;2022-07-03T03:56:03;15.70;99.90
54124;DHT22;55741;53.252;5.788;2022-07-03T03:58:31;15.70;99.90
54124;DHT22;55741;53.252;5.788;2022-07-03T04:00:59;15.70;99.90
54124;DHT22;55741;53.252;5.788;2022-07-03T04:03:26;15.70;99.90
54124;DHT22;55741;53.252;5.788;2022-07-03T04:05:53;15.70;99.90
54124;DHT22;55741;53.252;5.788;2022-07-03T04:08:20;15.70;99.90
54124;DHT22;55741;53.252;5.788;2022-07-03T04:10:46;15.70;99.90
54124;DHT22;55741;53.252;5.788;2022-07-03T04:13:13;15.80;99.90
54124;DHT22;55741;53.252;5.788;2022-07-03T04:15:39;15.70;99.90
54124;DHT22;55741;53.252;5.788;2022-07-03T04:18:05;15.80;99.90
54124;DHT22;55741;53.252;5.788;2022-07-03T04:20:31;15.80;99.90
54124;DHT22;55741;53.252;5.788;2022-07-03T04:22:58;15.80;99.90
54124;DHT22;55741;53.252;5.788;2022-07-03T04:25:24;15.80;99.90
54124;DHT22;55741;53.252;5.788;2022-07-03T04:27:50;15.80;99.90
54124;DHT22;55741;53.252;5.788;2022-07-03T04:30:16;15.80;99.90
54124;DHT22;55741;53.252;5.788;2022-07-03T04:32:42;15.80;99.90
54124;DHT22;55741;53.252;5.788;2022-07-03T04:35:08;15.80;99.90
54124;DHT22;55741;53.252;5.788;2022-07-03T04:37:34;15.80;99.90
54124;DHT22;55741;53.252;5.788;2022-07-03T04:40:00;15.80;99.90
54124;DHT22;55741;53.252;5.788;2022-07-03T04:42:26;15.80;99.90
54124;DHT22;55741;53.252;5.788;2022-07-03T04:44:52;15.80;99.90
54124;DHT22;55741;53.252;5.788;2022-07-03T04:47:18;15.80;99.90
54124;DHT22;55741;53.252;5.788;2022-07-03T04:49:44;15.80;99.90
54124;DHT22;55741;53.252;5.788;2022-07-03T04:52:10;15.80;99.90
54124;DHT22;55741;53.252;5.788;2022-07-03T04:54:36;15.80;99.90
54124;DHT22;55741;53.252;5.788;2022-07-03T04:57:04;15.90;99.90
54124;DHT22;55741;53.252;5.788;2022-07-03T04:59:30;15.80;99.90
54124;DHT22;55741;53.252;5.788;2022-07-03T05:01:56;15.80;99.90
54124;DHT22;55741;53.252;5.788;2022-07-03T05:04:22;15.80;99.90
54124;DHT22;55741;53.252;5.788;2022-07-03T05:06:48;15.90;99.90
54124;DHT22;55741;53.252;5.788;2022-07-03T05:09:14;15.90;99.90
54124;DHT22;55741;53.252;5.788;2022-07-03T05:11:40;16.00;99.90
54124;DHT22;55741;53.252;5.788;2022-07-03T05:14:07;16.00;99.90
54124;DHT22;55741;53.252;5.788;2022-07-03T05:16:33;16.10;99.90
54124;DHT22;55741;53.252;5.788;2022-07-03T05:18:59;16.20;99.90
54124;DHT22;55741;53.252;5.788;2022-07-03T05:21:26;16.30;99.90
54124;DHT22;55741;53.252;5.788;2022-07-03T05:23:52;16.50;99.90
54124;DHT22;55741;53.252;5.788;2022-07-03T05:26:18;16.50;99.90
54124;DHT22;55741;53.252;5.788;2022-07-03T05:28:44;16.60;99.90
54124;DHT22;55741;53.252;5.788;2022-07-03T05:31:10;16.70;99.90
54124;DHT22;55741;53.252;5.788;2022-07-03T05:33:37;16.70;99.90
54124;DHT22;55741;53.252;5.788;2022-07-03T05:36:03;16.80;99.90
54124;DHT22;55741;53.252;5.788;2022-07-03T05:38:30;16.80;99.90
54124;DHT22;55741;53.252;5.788;2022-07-03T05:41:15;16.90;99.90
54124;DHT22;55741;53.252;5.788;2022-07-03T05:43:41;16.90;99.90
54124;DHT22;55741;53.252;5.788;2022-07-03T05:46:07;16.90;99.90
54124;DHT22;55741;53.252;5.788;2022-07-03T05:48:33;17.00;99.90
54124;DHT22;55741;53.252;5.788;2022-07-03T05:50:59;17.00;99.90
54124;DHT22;55741;53.252;5.788;2022-07-03T05:53:25;17.00;99.90
54124;DHT22;55741;53.252;5.788;2022-07-03T05:55:51;17.00;99.90
54124;DHT22;55741;53.252;5.788;2022-07-03T05:58:18;17.00;99.90
54124;DHT22;55741;53.252;5.788;2022-07-03T06:00:44;17.10;99.90
54124;DHT22;55741;53.252;5.788;2022-07-03T06:03:10;17.10;99.90
54124;DHT22;55741;53.252;5.788;2022-07-03T06:05:36;17.20;99.90
54124;DHT22;55741;53.252;5.788;2022-07-03T06:08:02;17.20;99.90
54124;DHT22;55741;53.252;5.788;2022-07-03T06:10:28;17.40;99.90
54124;DHT22;55741;53.252;5.788;2022-07-03T06:12:55;17.40;99.90
54124;DHT22;55741;53.252;5.788;2022-07-03T06:15:21;17.50;99.90
54124;DHT22;55741;53.252;5.788;2022-07-03T06:17:47;17.60;99.90
54124;DHT22;55741;53.252;5.788;2022-07-03T06:20:13;17.60;99.90
54124;DHT22;55741;53.252;5.788;2022-07-03T06:22:39;17.70;99.90
54124;DHT22;55741;53.252;5.788;2022-07-03T06:25:06;17.80;99.90
54124;DHT22;55741;53.252;5.788;2022-07-03T06:27:33;17.80;99.90
54124;DHT22;55741;53.252;5.788;2022-07-03T06:29:59;17.90;99.90
54124;DHT22;55741;53.252;5.788;2022-07-03T06:32:25;18.00;99.90
54124;DHT22;55741;53.252;5.788;2022-07-03T06:34:51;18.20;99.90
54124;DHT22;55741;53.252;5.788;2022-07-03T06:37:18;18.30;99.90
54124;DHT22;55741;53.252;5.788;2022-07-03T06:39:44;18.40;99.90
54124;DHT22;55741;53.252;5.788;2022-07-03T06:42:10;18.60;99.90
54124;DHT22;55741;53.252;5.788;2022-07-03T06:44:36;18.70;99.90
54124;DHT22;55741;53.252;5.788;2022-07-03T06:47:01;18.80;99.90
54124;DHT22;55741;53.252;5.788;2022-07-03T06:49:29;19.00;99.90
54124;DHT22;55741;53.252;5.788;2022-07-03T06:51:57;19.10;99.90
54124;DHT22;55741;53.252;5.788;2022-07-03T06:54:23;19.30;99.90
54124;DHT22;55741;53.252;5.788;2022-07-03T06:56:49;19.40;99.90
54124;DHT22;55741;53.252;5.788;2022-07-03T06:59:17;19.60;99.90
54124;DHT22;55741;53.252;5.788;2022-07-03T07:01:43;19.80;99.90
54124;DHT22;55741;53.252;5.788;2022-07-03T07:04:09;19.90;99.90
54124;DHT22;55741;53.252;5.788;2022-07-03T07:06:35;20.00;99.90
54124;DHT22;55741;53.252;5.788;2022-07-03T07:09:01;20.10;99.90
54124;DHT22;55741;53.252;5.788;2022-07-03T07:11:26;20.30;99.90
54124;DHT22;55741;53.252;5.788;2022-07-03T07:13:52;20.40;99.90
54124;DHT22;55741;53.252;5.788;2022-07-03T07:16:18;20.50;99.90
54124;DHT22;55741;53.252;5.788;2022-07-03T07:18:44;20.60;99.90
54124;DHT22;55741;53.252;5.788;2022-07-03T07:21:10;20.60;99.90
54124;DHT22;55741;53.252;5.788;2022-07-03T07:23:36;20.70;99.90
54124;DHT22;55741;53.252;5.788;2022-07-03T07:26:03;20.80;99.90
54124;DHT22;55741;53.252;5.788;2022-07-03T07:28:29;20.80;99.90
54124;DHT22;55741;53.252;5.788;2022-07-03T07:30:56;20.80;99.90
54124;DHT22;55741;53.252;5.788;2022-07-03T07:33:23;20.90;99.90
54124;DHT22;55741;53.252;5.788;2022-07-03T07:35:50;21.10;99.90
54124;DHT22;55741;53.252;5.788;2022-07-03T07:38:17;21.30;99.90
54124;DHT22;55741;53.252;5.788;2022-07-03T07:40:43;21.40;99.90
54124;DHT22;55741;53.252;5.788;2022-07-03T07:43:09;21.40;99.90
54124;DHT22;55741;53.252;5.788;2022-07-03T07:45:35;21.50;99.90
54124;DHT22;55741;53.252;5.788;2022-07-03T07:48:01;21.70;99.90
54124;DHT22;55741;53.252;5.788;2022-07-03T07:50:29;21.70;99.90
54124;DHT22;55741;53.252;5.788;2022-07-03T07:52:55;21.80;99.90
54124;DHT22;55741;53.252;5.788;2022-07-03T07:55:21;21.80;99.90
54124;DHT22;55741;53.252;5.788;2022-07-03T07:57:48;22.00;99.90
54124;DHT22;55741;53.252;5.788;2022-07-03T08:00:18;22.20;99.90
54124;DHT22;55741;53.252;5.788;2022-07-03T08:02:45;22.40;99.90
54124;DHT22;55741;53.252;5.788;2022-07-03T08:05:30;22.50;99.90
54124;DHT22;55741;53.252;5.788;2022-07-03T08:08:16;22.40;99.90
54124;DHT22;55741;53.252;5.788;2022-07-03T08:10:47;22.10;99.90
54124;DHT22;55741;53.252;5.788;2022-07-03T08:13:15;22.10;99.90
54124;DHT22;55741;53.252;5.788;2022-07-03T08:15:42;22.00;99.90
54124;DHT22;55741;53.252;5.788;2022-07-03T08:18:08;22.00;99.90
54124;DHT22;55741;53.252;5.788;2022-07-03T08:20:35;22.10;99.90
54124;DHT22;55741;53.252;5.788;2022-07-03T08:23:01;22.20;99.90
54124;DHT22;55741;53.252;5.788;2022-07-03T08:25:27;22.30;99.90
54124;DHT22;55741;53.252;5.788;2022-07-03T08:27:53;22.30;99.90
54124;DHT22;55741;53.252;5.788;2022-07-03T08:30:19;22.40;99.90
54124;DHT22;55741;53.252;5.788;2022-07-03T08:32:47;22.60;99.90
54124;DHT22;55741;53.252;5.788;2022-07-03T08:35:14;22.60;99.90
54124;DHT22;55741;53.252;5.788;2022-07-03T08:37:40;22.60;99.90
54124;DHT22;55741;53.252;5.788;2022-07-03T08:40:08;22.80;99.90
54124;DHT22;55741;53.252;5.788;2022-07-03T08:42:37;22.90;99.90
54124;DHT22;55741;53.252;5.788;2022-07-03T08:45:06;22.90;99.90
54124;DHT22;55741;53.252;5.788;2022-07-03T08:47:33;22.90;99.90
54124;DHT22;55741;53.252;5.788;2022-07-03T08:50:01;22.80;99.90
54124;DHT22;55741;53.252;5.788;2022-07-03T08:52:28;22.90;99.90
54124;DHT22;55741;53.252;5.788;2022-07-03T08:54:54;23.00;99.90
54124;DHT22;55741;53.252;5.788;2022-07-03T08:57:20;23.10;99.90
54124;DHT22;55741;53.252;5.788;2022-07-03T08:59:50;23.20;99.90
54124;DHT22;55741;53.252;5.788;2022-07-03T09:02:20;23.40;99.90
54124;DHT22;55741;53.252;5.788;2022-07-03T09:04:46;23.30;99.90
54124;DHT22;55741;53.252;5.788;2022-07-03T09:07:13;23.20;99.90
54124;DHT22;55741;53.252;5.788;2022-07-03T09:09:39;23.10;99.90
54124;DHT22;55741;53.252;5.788;2022-07-03T09:12:06;23.20;99.90
54124;DHT22;55741;53.252;5.788;2022-07-03T09:14:32;23.20;99.90
54124;DHT22;55741;53.252;5.788;2022-07-03T09:16:58;23.10;99.90
54124;DHT22;55741;53.252;5.788;2022-07-03T09:19:43;23.20;99.90
54124;DHT22;55741;53.252;5.788;2022-07-03T09:22:23;23.20;99.90
54124;DHT22;55741;53.252;5.788;2022-07-03T09:25:33;23.00;99.90
54124;DHT22;55741;53.252;5.788;2022-07-03T09:27:51;22.70;99.90
54124;DHT22;55741;53.252;5.788;2022-07-03T09:30:18;22.60;99.90
54124;DHT22;55741;53.252;5.788;2022-07-03T09:32:47;22.70;99.90
54124;DHT22;55741;53.252;5.788;2022-07-03T09:35:15;22.80;99.90
54124;DHT22;55741;53.252;5.788;2022-07-03T09:37:48;22.80;99.90
54124;DHT22;55741;53.252;5.788;2022-07-03T09:40:14;22.70;99.90
54124;DHT22;55741;53.252;5.788;2022-07-03T09:42:57;22.60;99.90
54124;DHT22;55741;53.252;5.788;2022-07-03T09:45:24;22.30;99.90
54124;DHT22;55741;53.252;5.788;2022-07-03T09:47:50;22.10;99.90
54124;DHT22;55741;53.252;5.788;2022-07-03T09:50:15;22.00;99.90
54124;DHT22;55741;53.252;5.788;2022-07-03T09:58:10;21.70;99.90
54124;DHT22;55741;53.252;5.788;2022-07-03T10:00:31;21.60;99.90
54124;DHT22;55741;53.252;5.788;2022-07-03T10:03:08;21.60;99.90
54124;DHT22;55741;53.252;5.788;2022-07-03T10:05:42;21.60;99.90
54124;DHT22;55741;53.252;5.788;2022-07-03T10:08:15;21.70;99.90
54124;DHT22;55741;53.252;5.788;2022-07-03T10:10:48;21.70;99.90
54124;DHT22;55741;53.252;5.788;2022-07-03T10:13:15;21.90;99.90
54124;DHT22;55741;53.252;5.788;2022-07-03T10:15:42;22.10;99.90
54124;DHT22;55741;53.252;5.788;2022-07-03T10:18:11;22.10;99.90
54124;DHT22;55741;53.252;5.788;2022-07-03T10:23:09;22.00;99.90
54124;DHT22;55741;53.252;5.788;2022-07-03T10:25:35;22.20;99.90
54124;DHT22;55741;53.252;5.788;2022-07-03T10:28:03;22.50;99.90
54124;DHT22;55741;53.252;5.788;2022-07-03T10:30:30;22.60;99.90
54124;DHT22;55741;53.252;5.788;2022-07-03T10:32:57;22.60;99.90
54124;DHT22;55741;53.252;5.788;2022-07-03T10:35:32;22.60;99.90
54124;DHT22;55741;53.252;5.788;2022-07-03T10:41:04;22.70;99.90
54124;DHT22;55741;53.252;5.788;2022-07-03T10:43:51;22.80;99.90
54124;DHT22;55741;53.252;5.788;2022-07-03T10:46:36;22.90;99.90
54124;DHT22;55741;53.252;5.788;2022-07-03T10:49:11;23.00;99.90
54124;DHT22;55741;53.252;5.788;2022-07-03T11:07:33;23.40;99.90
54124;DHT22;55741;53.252;5.788;2022-07-03T11:13:14;23.50;99.90
54124;DHT22;55741;53.252;5.788;2022-07-03T11:18:32;23.80;99.90
54124;DHT22;55741;53.252;5.788;2022-07-03T11:24:18;24.40;99.90
54124;DHT22;55741;53.252;5.788;2022-07-03T11:26:45;24.20;99.90
54124;DHT22;55741;53.252;5.788;2022-07-03T11:29:28;24.00;99.90
54124;DHT22;55741;53.252;5.788;2022-07-03T11:31:54;23.70;99.90
54124;DHT22;55741;53.252;5.788;2022-07-03T11:34:20;23.50;99.90
54124;DHT22;55741;53.252;5.788;2022-07-03T11:36:47;23.30;99.90
54124;DHT22;55741;53.252;5.788;2022-07-03T11:39:13;23.30;99.90
54124;DHT22;55741;53.252;5.788;2022-07-03T11:41:44;23.20;99.90
54124;DHT22;55741;53.252;5.788;2022-07-03T11:44:15;23.10;99.90
54124;DHT22;55741;53.252;5.788;2022-07-03T11:46:41;23.20;99.90
54124;DHT22;55741;53.252;5.788;2022-07-03T11:49:18;23.40;99.90
54124;DHT22;55741;53.252;5.788;2022-07-03T11:51:55;23.50;99.90
54124;DHT22;55741;53.252;5.788;2022-07-03T11:54:21;23.40;99.90
54124;DHT22;55741;53.252;5.788;2022-07-03T11:56:47;23.50;99.90
54124;DHT22;55741;53.252;5.788;2022-07-03T11:59:13;23.60;99.90
54124;DHT22;55741;53.252;5.788;2022-07-03T12:01:39;23.80;99.90
54124;DHT22;55741;53.252;5.788;2022-07-03T12:04:12;23.80;99.90
54124;DHT22;55741;53.252;5.788;2022-07-03T12:12:09;23.70;99.90
54124;DHT22;55741;53.252;5.788;2022-07-03T12:17:08;24.00;99.90
54124;DHT22;55741;53.252;5.788;2022-07-03T12:19:35;24.00;99.90
54124;DHT22;55741;53.252;5.788;2022-07-03T12:22:03;23.90;99.90
54124;DHT22;55741;53.252;5.788;2022-07-03T12:24:29;23.80;99.90
54124;DHT22;55741;53.252;5.788;2022-07-03T12:26:55;23.90;99.90
54124;DHT22;55741;53.252;5.788;2022-07-03T12:29:21;24.00;99.90
54124;DHT22;55741;53.252;5.788;2022-07-03T12:31:48;24.00;99.90
54124;DHT22;55741;53.252;5.788;2022-07-03T12:34:15;23.80;99.90
54124;DHT22;55741;53.252;5.788;2022-07-03T12:36:58;23.50;99.90
54124;DHT22;55741;53.252;5.788;2022-07-03T12:39:46;23.20;99.90
54124;DHT22;55741;53.252;5.788;2022-07-03T12:42:19;23.30;99.90
54124;DHT22;55741;53.252;5.788;2022-07-03T12:45:18;23.30;99.90
54124;DHT22;55741;53.252;5.788;2022-07-03T12:47:45;23.20;99.90
54124;DHT22;55741;53.252;5.788;2022-07-03T12:50:11;23.30;99.90
54124;DHT22;55741;53.252;5.788;2022-07-03T12:52:55;23.30;99.90
54124;DHT22;55741;53.252;5.788;2022-07-03T12:55:26;23.40;99.90
54124;DHT22;55741;53.252;5.788;2022-07-03T12:58:15;23.60;99.90
54124;DHT22;55741;53.252;5.788;2022-07-03T13:01:00;23.90;99.90
54124;DHT22;55741;53.252;5.788;2022-07-03T13:03:30;24.20;99.90
54124;DHT22;55741;53.252;5.788;2022-07-03T13:05:57;24.10;99.90
54124;DHT22;55741;53.252;5.788;2022-07-03T13:08:24;23.90;99.90
54124;DHT22;55741;53.252;5.788;2022-07-03T13:10:58;23.60;99.90
54124;DHT22;55741;53.252;5.788;2022-07-03T13:13:24;23.40;99.90
54124;DHT22;55741;53.252;5.788;2022-07-03T13:15:50;23.20;99.90
54124;DHT22;55741;53.252;5.788;2022-07-03T13:18:17;23.20;99.90
54124;DHT22;55741;53.252;5.788;2022-07-03T13:20:43;23.00;99.90
54124;DHT22;55741;53.252;5.788;2022-07-03T13:23:09;23.00;99.90
54124;DHT22;55741;53.252;5.788;2022-07-03T13:25:36;23.00;99.90
54124;DHT22;55741;53.252;5.788;2022-07-03T13:28:10;23.00;99.90
54124;DHT22;55741;53.252;5.788;2022-07-03T13:30:36;23.00;99.90
54124;DHT22;55741;53.252;5.788;2022-07-03T13:33:03;22.80;99.90
54124;DHT22;55741;53.252;5.788;2022-07-03T13:35:29;22.70;99.90
54124;DHT22;55741;53.252;5.788;2022-07-03T13:37:55;22.40;99.90
54124;DHT22;55741;53.252;5.788;2022-07-03T13:40:21;22.20;99.90
54124;DHT22;55741;53.252;5.788;2022-07-03T13:42:47;22.00;99.90
54124;DHT22;55741;53.252;5.788;2022-07-03T13:45:13;21.70;99.90
54124;DHT22;55741;53.252;5.788;2022-07-03T13:47:39;21.50;99.90
54124;DHT22;55741;53.252;5.788;2022-07-03T13:50:05;21.40;99.90
54124;DHT22;55741;53.252;5.788;2022-07-03T13:52:31;21.20;99.90
54124;DHT22;55741;53.252;5.788;2022-07-03T13:54:56;21.10;99.90
54124;DHT22;55741;53.252;5.788;2022-07-03T13:57:22;21.10;99.90
54124;DHT22;55741;53.252;5.788;2022-07-03T13:59:48;21.00;99.90
54124;DHT22;55741;53.252;5.788;2022-07-03T14:02:15;20.90;99.90
54124;DHT22;55741;53.252;5.788;2022-07-03T14:04:41;20.80;99.90
54124;DHT22;55741;53.252;5.788;2022-07-03T14:07:07;20.70;99.90
54124;DHT22;55741;53.252;5.788;2022-07-03T14:09:34;20.50;99.90
54124;DHT22;55741;53.252;5.788;2022-07-03T14:12:00;20.50;99.90
54124;DHT22;55741;53.252;5.788;2022-07-03T14:14:26;20.50;99.90
54124;DHT22;55741;53.252;5.788;2022-07-03T14:16:52;20.40;99.90
54124;DHT22;55741;53.252;5.788;2022-07-03T14:19:18;20.40;99.90
54124;DHT22;55741;53.252;5.788;2022-07-03T14:21:44;20.30;99.90
54124;DHT22;55741;53.252;5.788;2022-07-03T14:24:10;20.30;99.90
54124;DHT22;55741;53.252;5.788;2022-07-03T14:26:36;20.30;99.90
54124;DHT22;55741;53.252;5.788;2022-07-03T14:29:28;20.20;99.90
54124;DHT22;55741;53.252;5.788;2022-07-03T14:32:12;20.20;99.90
54124;DHT22;55741;53.252;5.788;2022-07-03T14:35:02;20.30;99.90
54124;DHT22;55741;53.252;5.788;2022-07-03T14:37:28;20.40;99.90
54124;DHT22;55741;53.252;5.788;2022-07-03T14:39:54;20.50;99.90
54124;DHT22;55741;53.252;5.788;2022-07-03T14:42:20;20.80;99.90
54124;DHT22;55741;53.252;5.788;2022-07-03T14:44:47;21.10;99.90
54124;DHT22;55741;53.252;5.788;2022-07-03T14:47:13;21.40;99.90
54124;DHT22;55741;53.252;5.788;2022-07-03T14:49:39;21.50;99.90
54124;DHT22;55741;53.252;5.788;2022-07-03T14:52:05;21.60;99.90
54124;DHT22;55741;53.252;5.788;2022-07-03T14:54:32;21.70;99.90
54124;DHT22;55741;53.252;5.788;2022-07-03T14:57:00;21.70;99.90
54124;DHT22;55741;53.252;5.788;2022-07-03T15:05:11;21.70;99.90
54124;DHT22;55741;53.252;5.788;2022-07-03T15:10:36;21.40;99.90
54124;DHT22;55741;53.252;5.788;2022-07-03T15:13:05;21.20;99.90
54124;DHT22;55741;53.252;5.788;2022-07-03T15:15:32;21.10;99.90
54124;DHT22;55741;53.252;5.788;2022-07-03T15:18:00;21.10;99.90
54124;DHT22;55741;53.252;5.788;2022-07-03T15:20:35;20.90;99.90
54124;DHT22;55741;53.252;5.788;2022-07-03T15:23:03;20.90;99.90
54124;DHT22;55741;53.252;5.788;2022-07-03T15:25:31;20.80;99.90
54124;DHT22;55741;53.252;5.788;2022-07-03T15:27:57;20.80;99.90
54124;DHT22;55741;53.252;5.788;2022-07-03T15:30:25;20.70;99.90
54124;DHT22;55741;53.252;5.788;2022-07-03T15:32:52;20.70;99.90
54124;DHT22;55741;53.252;5.788;2022-07-03T15:35:20;20.80;99.90
54124;DHT22;55741;53.252;5.788;2022-07-03T15:38:11;20.80;99.90
54124;DHT22;55741;53.252;5.788;2022-07-03T15:40:53;20.80;99.90
54124;DHT22;55741;53.252;5.788;2022-07-03T15:48:52;20.80;99.90
54124;DHT22;55741;53.252;5.788;2022-07-03T15:51:24;20.80;99.90
54124;DHT22;55741;53.252;5.788;2022-07-03T15:53:58;20.70;99.90
54124;DHT22;55741;53.252;5.788;2022-07-03T15:56:34;20.70;99.90
54124;DHT22;55741;53.252;5.788;2022-07-03T15:59:03;20.60;99.90
54124;DHT22;55741;53.252;5.788;2022-07-03T16:01:30;20.50;99.90
54124;DHT22;55741;53.252;5.788;2022-07-03T16:04:24;20.50;99.90
54124;DHT22;55741;53.252;5.788;2022-07-03T16:06:52;20.40;99.90
54124;DHT22;55741;53.252;5.788;2022-07-03T16:09:19;20.40;99.90
54124;DHT22;55741;53.252;5.788;2022-07-03T16:11:47;20.40;99.90
54124;DHT22;55741;53.252;5.788;2022-07-03T16:14:15;20.40;99.90
54124;DHT22;55741;53.252;5.788;2022-07-03T16:16:43;20.40;99.90
54124;DHT22;55741;53.252;5.788;2022-07-03T16:19:11;20.40;99.90
54124;DHT22;55741;53.252;5.788;2022-07-03T16:21:37;20.40;99.90
54124;DHT22;55741;53.252;5.788;2022-07-03T16:24:06;20.40;99.90
54124;DHT22;55741;53.252;5.788;2022-07-03T16:26:35;20.30;99.90
54124;DHT22;55741;53.252;5.788;2022-07-03T16:29:02;20.40;99.90
54124;DHT22;55741;53.252;5.788;2022-07-03T16:31:36;20.40;99.90
54124;DHT22;55741;53.252;5.788;2022-07-03T16:34:23;20.40;99.90
54124;DHT22;55741;53.252;5.788;2022-07-03T16:36:53;20.40;99.90
54124;DHT22;55741;53.252;5.788;2022-07-03T16:39:30;20.40;99.90
54124;DHT22;55741;53.252;5.788;2022-07-03T16:41:59;20.50;99.90
54124;DHT22;55741;53.252;5.788;2022-07-03T16:44:31;20.60;99.90
54124;DHT22;55741;53.252;5.788;2022-07-03T16:46:59;20.60;99.90
54124;DHT22;55741;53.252;5.788;2022-07-03T16:49:33;20.60;99.90
54124;DHT22;55741;53.252;5.788;2022-07-03T16:52:04;20.60;99.90
54124;DHT22;55741;53.252;5.788;2022-07-03T16:54:31;20.60;99.90
54124;DHT22;55741;53.252;5.788;2022-07-03T16:57:03;20.60;99.90
54124;DHT22;55741;53.252;5.788;2022-07-03T16:59:31;20.70;99.90
54124;DHT22;55741;53.252;5.788;2022-07-03T17:01:58;20.80;99.90
54124;DHT22;55741;53.252;5.788;2022-07-03T17:04:28;20.80;99.90
54124;DHT22;55741;53.252;5.788;2022-07-03T17:06:55;20.80;99.90